Terminal Aerodrome Forecast
Issued by NWS

Home | Current Version | Previous Version | Text Only | Print | Product List | Glossary On
Versions: 1 2 3 4 5 6 7 8 9 10 11 12 13
000
FTAK31 PAFA 272320
TAFATA
TAF
PATA 272320Z 2800/2824 13006KT P6SM BKN090
     FM280600 09004KT P6SM SCT070 BKN150
     FM281500 10004KT P6SM VCSH SCT060 BKN100 BKN200=

USA.gov is the U.S. government's official web portal to all federal, state and local government web resources and services.